Time;durP1;ratioP1;P1;durP2;ratioP2;P2;SDS_P1;SDS_P2;PMS_P1;PMS_P2;Temp;Humidity;BMP_temperature;BMP_pressure;BME280_temperature;BME280_humidity;BME280_pressure;Samples;Min_cycle;Max_cycle;Signal;HPM_P1;HPM_P2
2022/12/08 00:01:46;;;;;;;17.05;10.10;;;;;;;4.78;87.94;101042.03;5016723;28;20032;-88
2022/12/08 00:04:13;;;;;;;13.48;10.23;;;;;;;4.62;87.81;101010.00;5016653;28;20034;-88
2022/12/08 00:09:29;;;;;;;15.25;9.52;;;;;;;4.60;87.85;101016.91;5035209;28;20485;-88
2022/12/08 00:12:16;;;;;;;14.05;9.65;;;;;;;4.48;88.09;101004.25;5017856;28;20082;-88
2022/12/08 00:14:48;;;;;;;12.93;9.55;;;;;;;4.34;88.69;100995.00;5034737;28;20064;-89
2022/12/08 00:17:15;;;;;;;12.38;9.30;;;;;;;4.33;88.84;100982.75;5037203;28;20069;-87
2022/12/08 00:19:51;;;;;;;;;;;;;;;;;;;;;
2022/12/08 00:22:17;;;;;;;13.02;9.13;;;;;;;4.56;89.15;101028.09;5034820;28;20029;-89
2022/12/08 00:24:49;;;;;;;14.75;9.30;;;;;;;4.39;89.28;100988.22;5016354;28;20035;-88
2022/12/08 00:27:17;;;;;;;14.52;9.98;;;;;;;4.71;89.26;101026.97;5001216;28;20044;-89
2022/12/08 00:29:44;;;;;;;15.93;10.30;;;;;;;4.39;89.19;100978.63;4999682;28;20041;-88
2022/12/08 00:32:14;;;;;;;15.00;10.00;;;;;;;4.53;89.34;101003.59;5016427;28;20037;-88
2022/12/08 00:34:40;;;;;;;14.23;10.25;;;;;;;4.35;89.18;100974.13;4999917;28;20095;-88
2022/12/08 00:37:23;;;;;;;17.20;10.07;;;;;;;4.52;89.45;100993.06;5015722;28;20092;-88
2022/12/08 00:39:51;;;;;;;14.65;10.50;;;;;;;4.46;89.36;100969.31;5016180;28;20030;-88
2022/12/08 00:42:17;;;;;;;17.05;11.00;;;;;;;4.44;89.35;100979.69;5016857;28;20036;-88
2022/12/08 00:44:44;;;;;;;20.83;11.10;;;;;;;4.41;89.63;100971.75;5016476;28;20382;-88
2022/12/08 00:47:11;;;;;;;15.25;10.63;;;;;;;4.58;89.82;101001.13;5015923;28;20394;-88
2022/12/08 00:49:42;;;;;;;15.85;11.48;;;;;;;4.53;90.38;100995.75;5016309;28;20072;-88
2022/12/08 00:52:11;;;;;;;18.95;11.80;;;;;;;4.36;89.96;100952.34;5015753;28;20084;-88
2022/12/08 00:54:39;;;;;;;17.10;11.40;;;;;;;4.73;89.88;101009.56;5015940;28;20446;-88
2022/12/08 00:57:07;;;;;;;18.42;12.05;;;;;;;4.53;90.28;100974.81;5016018;28;20033;-88
2022/12/08 00:59:32;;;;;;;17.40;11.43;;;;;;;4.62;90.22;100997.81;5033681;28;20037;-88
2022/12/08 01:02:00;;;;;;;16.73;12.02;;;;;;;4.35;90.09;100950.56;5033785;28;20036;-88
2022/12/08 01:04:26;;;;;;;20.13;11.25;;;;;;;4.56;90.27;100975.78;5015828;28;20060;-87
2022/12/08 01:06:51;;;;;;;17.08;11.68;;;;;;;4.55;90.37;100961.78;5016083;28;20061;-88
2022/12/08 01:09:19;;;;;;;19.05;12.23;;;;;;;4.58;90.94;100963.63;5015478;28;20141;-88
2022/12/08 01:11:45;;;;;;;21.27;12.07;;;;;;;4.63;90.33;100970.81;5033206;28;20101;-89
2022/12/08 01:14:11;;;;;;;19.30;12.75;;;;;;;4.61;89.35;100972.47;4999388;28;20363;-88
2022/12/08 01:16:39;;;;;;;18.42;13.00;;;;;;;4.60;89.76;100956.72;5015791;28;20029;-88
2022/12/08 01:19:29;;;;;;;20.77;12.00;;;;;;;4.65;90.11;100965.63;4999260;28;20409;-88
2022/12/08 01:21:57;;;;;;;18.25;12.60;;;;;;;4.52;89.95;100932.88;5032568;28;20034;-88
2022/12/08 01:24:35;;;;;;;18.75;12.68;;;;;;;4.50;89.88;100931.97;5015958;28;20104;-88
2022/12/08 01:27:00;;;;;;;19.23;12.00;;;;;;;4.81;89.92;100991.53;5000324;28;20409;-88
2022/12/08 01:29:35;;;;;;;16.17;11.25;;;;;;;4.65;90.09;100956.06;5033236;28;20033;-88
2022/12/08 01:32:01;;;;;;;15.38;11.07;;;;;;;4.83;90.15;100992.47;5019871;28;20033;-88
2022/12/08 01:34:26;;;;;;;17.45;11.32;;;;;;;4.72;89.81;100962.41;5037123;28;20052;-88
2022/12/08 01:36:54;;;;;;;16.25;10.80;;;;;;;4.77;89.89;100980.06;5019244;28;20078;-88
2022/12/08 01:39:29;;;;;;;;;;;;;;;;;;;;;
2022/12/08 01:41:55;;;;;;;15.73;9.88;;;;;;;4.60;89.90;100939.28;5040147;28;20033;-87
2022/12/08 01:44:20;;;;;;;14.93;10.88;;;;;;;4.90;89.40;100997.09;5020416;28;20036;-88
2022/12/08 01:46:47;;;;;;;12.90;9.15;;;;;;;4.80;89.79;100965.28;5036903;28;20057;-87
2022/12/08 01:49:27;;;;;;;16.65;9.00;;;;;;;4.94;89.67;100979.78;5019302;28;20037;-87
2022/12/08 01:52:06;;;;;;;12.80;9.13;;;;;;;4.89;89.33;100974.38;5019792;28;20057;-86
2022/12/08 01:54:40;;;;;;;12.32;8.18;;;;;;;4.79;90.16;100961.78;5019374;28;20033;-87
2022/12/08 01:57:15;;;;;;;13.77;9.13;;;;;;;4.79;90.15;100967.00;5019393;28;20542;-87
2022/12/08 01:59:50;;;;;;;14.07;9.15;;;;;;;4.61;89.78;100934.94;5019340;28;20047;-87
2022/12/08 02:02:16;;;;;;;13.48;8.85;;;;;;;4.71;90.25;100944.91;5019571;28;20032;-88
2022/12/08 02:04:41;;;;;;;16.00;9.48;;;;;;;4.62;90.12;100926.25;5018901;28;20041;-88
2022/12/08 02:07:12;;;;;;;14.38;8.68;;;;;;;4.66;90.73;100938.63;5019167;28;20060;-87
2022/12/08 02:09:40;;;;;;;14.20;9.35;;;;;;;4.59;90.28;100932.28;5019478;28;20123;-87
2022/12/08 02:12:28;;;;;;;;;;;;;;;;;;;;;
2022/12/08 02:14:54;;;;;;;12.70;8.40;;;;;;;4.49;90.59;100910.09;5022283;28;20462;-88
2022/12/08 02:17:44;;;;;;;11.55;8.20;;;;;;;4.73;90.56;100940.63;5002120;28;20128;-88
2022/12/08 02:20:14;;;;;;;11.43;8.00;;;;;;;4.50;90.91;100913.66;5019458;28;20108;-87
2022/12/08 02:22:58;;;;;;;10.43;8.02;;;;;;;4.65;90.46;100929.88;5018945;28;20427;-87
2022/12/08 02:26:00;;;;;;;11.48;7.65;;;;;;;4.43;90.12;100882.84;5018673;28;20262;-87
2022/12/08 02:28:43;;;;;;;12.85;7.78;;;;;;;4.58;90.48;100920.00;5036414;28;20474;-87
2022/12/08 02:31:36;;;;;;;10.02;7.03;;;;;;;4.68;90.46;100930.00;5035942;28;20030;-87
2022/12/08 02:34:13;;;;;;;11.75;7.43;;;;;;;4.66;90.60;100928.16;5018238;28;20030;-88
2022/12/08 02:36:56;;;;;;;11.05;7.18;;;;;;;4.61;91.17;100922.75;5018138;28;20103;-87
2022/12/08 02:39:37;;;;;;;10.07;7.18;;;;;;;4.43;91.14;100902.06;5036064;28;20044;-88
2022/12/08 02:42:26;;;;;;;10.15;7.18;;;;;;;4.57;91.45;100918.25;5016689;28;20030;-87
2022/12/08 02:45:00;;;;;;;9.77;6.88;;;;;;;4.60;91.38;100923.59;5018582;28;20036;-87
2022/12/08 02:47:29;;;;;;;8.73;6.35;;;;;;;4.64;90.83;100909.78;5018426;28;20034;-87
2022/12/08 02:49:58;;;;;;;10.60;6.75;;;;;;;4.62;90.93;100910.56;5018167;28;20132;-88
2022/12/08 02:52:25;;;;;;;9.77;6.10;;;;;;;4.64;90.50;100903.66;5018089;28;20120;-88
2022/12/08 02:55:08;;;;;;;9.32;6.15;;;;;;;4.48;90.84;100869.09;5019431;28;20097;-87
2022/12/08 02:57:36;;;;;;;;;;;;;;;4.72;90.26;100896.97;5037908;28;20040;-87
2022/12/08 03:00:31;;;;;;;10.90;5.85;;;;;;;4.58;90.83;100882.50;5018970;28;20007;-88
2022/12/08 03:03:10;;;;;;;9.15;5.60;;;;;;;4.65;90.78;100893.25;5018536;28;20045;-88
2022/12/08 03:06:33;;;;;;;8.90;5.57;;;;;;;4.69;90.03;100889.00;5020544;28;20033;-87
2022/12/08 03:09:27;;;;;;;9.80;5.90;;;;;;;4.43;90.35;100852.34;4955751;29;20035;-87
2022/12/08 03:12:22;;;;;;;9.10;5.70;;;;;;;4.40;91.26;100854.84;4888175;29;20068;-87
2022/12/08 03:14:52;;;;;;;9.82;6.10;;;;;;;4.41;90.91;100856.66;5016423;28;20092;-88
2022/12/08 03:17:23;;;;;;;9.00;5.85;;;;;;;4.36;91.40;100867.75;5017372;28;20495;-87
2022/12/08 03:19:53;;;;;;;7.45;5.65;;;;;;;4.42;91.90;100875.84;5017774;28;20121;-87
2022/12/08 03:22:23;;;;;;;9.38;6.00;;;;;;;4.43;91.99;100860.19;5017459;28;20033;-87
2022/12/08 03:25:00;;;;;;;8.65;5.50;;;;;;;4.27;91.96;100832.59;5017769;28;20029;-88
2022/12/08 03:27:28;;;;;;;11.05;6.13;;;;;;;4.41;92.06;100845.25;5018339;28;20517;-87
2022/12/08 03:29:56;;;;;;;9.35;6.00;;;;;;;4.37;91.82;100827.69;5017373;28;20037;-87
2022/12/08 03:32:36;;;;;;;11.80;6.70;;;;;;;4.55;91.69;100853.63;5017488;28;20033;-87
2022/12/08 03:35:10;;;;;;;9.90;6.32;;;;;;;4.71;91.72;100883.00;5017631;28;20450;-87
2022/12/08 03:37:37;;;;;;;11.35;5.78;;;;;;;4.48;91.26;100834.19;5017755;28;20053;-87
2022/12/08 03:40:05;;;;;;;8.23;6.00;;;;;;;4.53;91.47;100837.84;5017222;28;20549;-87
2022/12/08 03:42:35;;;;;;;8.95;6.47;;;;;;;4.46;91.25;100818.44;5016750;28;20068;-87
2022/12/08 03:45:01;;;;;;;11.05;7.05;;;;;;;4.48;90.95;100824.59;5017991;28;20036;-87
2022/12/08 03:47:26;;;;;;;10.80;7.05;;;;;;;4.62;91.36;100845.13;5017318;28;20030;-86
2022/12/08 03:49:54;;;;;;;11.18;6.85;;;;;;;4.52;90.95;100823.00;5016768;28;20030;-88
2022/12/08 03:52:22;;;;;;;11.32;7.35;;;;;;;4.63;91.63;100850.44;5016928;28;20037;-87
2022/12/08 03:54:48;;;;;;;13.13;7.20;;;;;;;4.35;91.59;100792.75;5016764;28;20091;-87
2022/12/08 03:57:18;;;;;;;12.20;8.82;;;;;;;4.53;91.80;100819.53;5018022;28;20029;-86
2022/12/08 03:59:43;;;;;;;14.77;9.40;;;;;;;4.42;91.49;100803.47;5017181;28;20429;-87
2022/12/08 04:02:11;;;;;;;12.43;9.13;;;;;;;4.55;91.44;100827.47;5034844;28;20021;-87
2022/12/08 04:04:36;;;;;;;15.85;10.95;;;;;;;4.41;92.64;100801.72;5000107;28;20091;-86
2022/12/08 04:07:02;;;;;;;16.35;11.25;;;;;;;4.56;92.11;100821.38;5016981;28;20128;-87
2022/12/08 04:09:27;;;;;;;18.73;11.98;;;;;;;4.61;91.93;100819.81;5016965;28;20032;-86
2022/12/08 04:11:53;;;;;;;17.98;12.20;;;;;;;4.54;92.29;100808.25;5034760;28;20552;-86
2022/12/08 04:14:18;;;;;;;20.15;13.38;;;;;;;4.53;92.62;100812.56;5034401;28;20441;-86
2022/12/08 04:16:44;;;;;;;20.67;13.65;;;;;;;4.53;92.08;100812.56;5017137;28;20049;-87
2022/12/08 04:19:12;;;;;;;21.85;14.13;;;;;;;4.46;92.01;100794.00;5034409;28;20382;-87
2022/12/08 04:21:37;;;;;;;23.73;14.88;;;;;;;4.53;92.19;100809.06;5016439;28;20052;-87
2022/12/08 04:24:03;;;;;;;24.95;15.63;;;;;;;4.47;92.91;100807.13;5034775;28;20446;-87
2022/12/08 04:26:28;;;;;;;25.40;16.23;;;;;;;4.45;92.45;100800.06;5016193;28;20120;-86
2022/12/08 04:28:54;;;;;;;26.83;16.40;;;;;;;4.58;93.05;100822.31;5017728;28;20112;-87
2022/12/08 04:31:19;;;;;;;25.50;15.85;;;;;;;4.42;92.74;100794.75;5016096;28;20084;-86
2022/12/08 04:33:47;;;;;;;24.52;15.18;;;;;;;4.36;92.55;100773.59;5016250;28;20033;-87
2022/12/08 04:36:15;;;;;;;23.40;14.77;;;;;;;4.45;93.24;100787.91;5016430;28;20405;-87
2022/12/08 04:38:46;;;;;;;26.05;14.88;;;;;;;4.45;92.91;100787.91;4996183;28;20061;-87
2022/12/08 04:41:11;;;;;;;25.42;15.00;;;;;;;4.63;93.08;100831.22;5013048;28;20072;-86
2022/12/08 04:43:40;;;;;;;23.10;14.55;;;;;;;4.50;93.10;100806.38;5013599;28;20061;-86
2022/12/08 04:46:16;;;;;;;20.15;13.63;;;;;;;4.46;92.82;100788.78;5012472;28;20057;-87
2022/12/08 04:48:41;;;;;;;20.40;12.82;;;;;;;4.38;92.71;100778.03;5013572;28;20399;-87
2022/12/08 04:51:16;;;;;;;19.08;12.95;;;;;;;4.51;92.76;100789.81;5013927;28;20121;-87
2022/12/08 04:53:42;;;;;;;17.27;11.68;;;;;;;4.69;92.35;100814.00;5012583;28;20065;-87
2022/12/08 04:56:16;;;;;;;17.42;11.32;;;;;;;4.67;92.66;100804.31;5012633;28;20034;-87
2022/12/08 04:58:42;;;;;;;15.90;11.25;;;;;;;4.53;92.62;100775.94;5012773;28;20041;-87
2022/12/08 05:01:08;;;;;;;15.43;10.38;;;;;;;4.71;92.38;100807.09;5013851;28;20022;-87
2022/12/08 05:03:34;;;;;;;14.73;9.63;;;;;;;4.55;92.20;100776.00;5012674;28;20034;-87
2022/12/08 05:06:00;;;;;;;17.52;10.20;;;;;;;4.75;91.94;100806.38;5012033;28;20068;-87
2022/12/08 05:08:28;;;;;;;14.77;10.00;;;;;;;4.55;92.36;100762.94;5007871;28;20365;-86
2022/12/08 05:11:00;;;;;;;14.57;9.77;;;;;;;4.60;91.75;100782.28;5016078;28;20033;-86
2022/12/08 05:13:29;;;;;;;12.90;8.43;;;;;;;4.87;91.75;100818.94;5016017;28;20469;-87
2022/12/08 05:16:01;;;;;;;12.82;8.13;;;;;;;4.75;91.67;100792.34;5015989;28;20049;-86
2022/12/08 05:18:27;;;;;;;14.15;8.63;;;;;;;4.81;91.43;100808.28;5015829;28;20049;-86
2022/12/08 05:20:55;;;;;;;14.95;8.13;;;;;;;4.68;91.27;100788.66;5033427;28;20472;-85
2022/12/08 05:23:20;;;;;;;9.90;5.88;;;;;;;4.71;90.88;100795.72;5033152;28;20029;-86
2022/12/08 05:25:45;;;;;;;6.22;4.10;;;;;;;4.68;90.47;100787.78;5015678;28;20381;-86
2022/12/08 05:28:11;;;;;;;6.13;3.90;;;;;;;4.80;90.36;100823.91;5015864;28;20120;-87
2022/12/08 05:30:39;;;;;;;6.00;4.03;;;;;;;4.74;90.08;100820.25;5033255;28;20033;-87
2022/12/08 05:33:10;;;;;;;8.18;3.92;;;;;;;4.47;90.36;100775.75;5015848;28;20041;-87
2022/12/08 05:35:35;;;;;;;5.88;4.00;;;;;;;4.62;90.54;100798.91;5015709;28;20068;-87
2022/12/08 05:38:04;;;;;;;6.85;3.92;;;;;;;4.61;91.07;100791.00;5015145;28;20081;-87
2022/12/08 05:40:30;;;;;;;5.72;3.38;;;;;;;4.68;90.98;100791.28;5033092;28;20043;-87
2022/12/08 05:42:55;;;;;;;6.15;3.55;;;;;;;4.61;90.73;100781.44;5015152;28;20453;-88
2022/12/08 05:45:21;;;;;;;8.60;3.90;;;;;;;4.66;90.67;100778.97;5033286;28;20084;-88
2022/12/08 05:47:46;;;;;;;7.47;3.78;;;;;;;4.74;90.75;100785.34;5015194;28;20117;-87
2022/12/08 05:50:12;;;;;;;8.35;3.60;;;;;;;4.71;90.66;100773.06;5032750;28;20091;-87
2022/12/08 05:52:37;;;;;;;8.57;3.50;;;;;;;4.94;90.85;100812.19;5015885;28;20087;-87
2022/12/08 05:55:03;;;;;;;6.22;3.33;;;;;;;4.80;90.38;100771.56;5032835;28;20030;-87
2022/12/08 05:57:34;;;;;;;6.82;3.53;;;;;;;5.01;90.70;100788.88;5015887;28;20029;-87
2022/12/08 05:59:59;;;;;;;6.57;3.38;;;;;;;5.03;89.84;100792.44;5015182;28;20072;-87
2022/12/08 06:02:25;;;;;;;5.78;3.38;;;;;;;4.97;89.72;100779.16;5015760;28;20030;-87
2022/12/08 06:04:53;;;;;;;5.47;3.28;;;;;;;4.94;89.84;100772.94;5032726;28;20034;-87
2022/12/08 06:07:22;;;;;;;4.80;2.70;;;;;;;4.93;88.40;100779.91;5015196;28;20033;-86
2022/12/08 06:09:47;;;;;;;4.45;2.63;;;;;;;4.76;88.63;100773.22;5015173;28;20531;-86
2022/12/08 06:12:25;;;;;;;;;;;;;;;;;;;;;
2022/12/08 06:14:51;;;;;;;2.60;2.20;;;;;;;4.69;88.90;100774.72;5017184;28;20377;-87
2022/12/08 06:17:16;;;;;;;2.88;2.30;;;;;;;4.50;89.14;100760.16;5017398;28;20125;-87
2022/12/08 06:19:42;;;;;;;4.35;2.20;;;;;;;4.39;89.18;100737.06;5019112;28;20026;-86
2022/12/08 06:22:07;;;;;;;5.25;2.42;;;;;;;4.67;89.54;100792.13;5018442;28;20060;-86
2022/12/08 06:24:32;;;;;;;3.42;2.20;;;;;;;4.43;89.55;100742.47;5003088;28;20048;-87
2022/12/08 06:26:58;;;;;;;3.88;2.10;;;;;;;4.54;89.27;100758.53;5018385;28;20116;-86
2022/12/08 06:29:23;;;;;;;3.90;2.40;;;;;;;4.59;89.62;100763.94;5018906;28;20033;-86
2022/12/08 06:31:51;;;;;;;4.82;2.38;;;;;;;4.56;89.52;100755.97;5018703;28;20039;-86
2022/12/08 06:34:17;;;;;;;5.65;2.42;;;;;;;4.61;89.78;100760.50;5036279;28;20033;-87
2022/12/08 06:36:42;;;;;;;4.22;2.50;;;;;;;4.65;89.53;100769.34;5018786;28;20087;-86
2022/12/08 06:39:09;;;;;;;6.25;2.38;;;;;;;4.61;89.08;100762.22;5018581;28;20478;-87
2022/12/08 06:42:42;;;;;;;4.25;2.25;;;;;;;4.52;89.44;100757.56;5035814;28;20029;-86
2022/12/08 06:44:22;;;;;;;2.83;2.05;;;;;;;4.56;89.86;100771.66;5035784;28;20029;-86
2022/12/08 06:46:48;;;;;;;6.03;2.38;;;;;;;4.63;89.66;100790.25;5018312;28;20163;-87
2022/12/08 06:49:15;;;;;;;3.33;2.10;;;;;;;4.44;89.84;100772.13;5018378;28;20125;-86
2022/12/08 06:51:41;;;;;;;3.40;1.92;;;;;;;4.46;89.81;100787.06;5018935;28;20041;-86
2022/12/08 06:54:06;;;;;;;1.95;1.75;;;;;;;4.34;89.44;100762.19;5018330;28;20033;-87
2022/12/08 06:56:32;;;;;;;2.92;1.95;;;;;;;4.34;89.52;100757.84;5017695;28;20508;-88
2022/12/08 06:58:57;;;;;;;2.97;2.15;;;;;;;4.48;89.78;100782.75;5002005;28;20037;-87
2022/12/08 07:01:25;;;;;;;3.92;2.10;;;;;;;4.23;89.66;100730.44;5017585;28;20026;-87
2022/12/08 07:03:57;;;;;;;4.95;2.25;;;;;;;4.36;89.84;100748.31;5018227;28;20026;-88
2022/12/08 07:06:24;;;;;;;3.85;2.25;;;;;;;4.39;89.88;100758.88;5001975;28;20469;-87
2022/12/08 07:08:52;;;;;;;4.00;2.10;;;;;;;4.30;90.59;100736.78;5035756;28;20040;-88
2022/12/08 07:11:34;;;;;;;3.05;1.90;;;;;;;4.29;90.02;100746.34;5018602;28;20047;-88
2022/12/08 07:14:01;;;;;;;2.88;1.83;;;;;;;4.41;89.86;100762.47;5001785;28;20124;-88
2022/12/08 07:16:29;;;;;;;2.90;2.03;;;;;;;4.29;90.00;100745.47;5012827;28;20046;-90
2022/12/08 07:18:55;;;;;;;5.03;2.38;;;;;;;4.40;90.08;100773.75;5035787;28;20061;-88
2022/12/08 07:21:20;;;;;;;3.35;2.22;;;;;;;4.23;90.45;100747.00;5017509;28;20040;-88
2022/12/08 07:23:50;;;;;;;5.80;2.58;;;;;;;4.30;90.52;100748.13;5035163;28;20037;-90
2022/12/08 07:26:26;;;;;;;5.22;2.70;;;;;;;4.28;90.25;100744.53;5017838;28;20043;-90
2022/12/08 07:28:51;;;;;;;5.70;2.65;;;;;;;4.25;89.60;100739.22;5017574;28;20033;-89
2022/12/08 07:31:25;;;;;;;4.00;2.65;;;;;;;4.24;89.87;100740.97;5035736;28;20033;-91
2022/12/08 07:33:57;;;;;;;5.03;2.80;;;;;;;4.32;90.31;100751.66;5017697;28;20099;-90
2022/12/08 07:36:48;;;;;;;4.10;2.70;;;;;;;4.27;89.67;100748.88;5001145;28;20037;-91
2022/12/08 07:39:18;;;;;;;4.88;3.05;;;;;;;4.19;89.95;100737.28;5017087;28;20459;-90
2022/12/08 07:41:47;;;;;;;5.10;2.75;;;;;;;4.36;90.21;100761.38;5017704;28;20079;-89
2022/12/08 07:44:15;;;;;;;4.20;3.10;;;;;;;4.35;89.90;100758.72;5018045;28;20021;-89
2022/12/08 07:46:43;;;;;;;7.05;3.45;;;;;;;4.38;90.28;100764.09;5016895;28;20021;-90
2022/12/08 07:49:12;;;;;;;5.88;3.88;;;;;;;4.26;90.32;100747.13;5017000;28;20431;-90
2022/12/08 07:51:57;;;;;;;5.18;3.78;;;;;;;4.29;90.63;100763.78;5016897;28;20038;-90
2022/12/08 07:54:23;;;;;;;6.43;4.40;;;;;;;4.27;90.82;100761.09;5016991;28;20033;-89
2022/12/08 07:56:51;;;;;;;5.97;5.05;;;;;;;4.25;91.36;100768.88;5016904;28;20041;-88
2022/12/08 07:59:52;;;;;;;7.00;5.22;;;;;;;4.23;91.53;100743.50;5017699;28;20055;-90
2022/12/08 08:02:28;;;;;;;8.82;5.88;;;;;;;4.18;91.10;100735.50;5014464;28;20107;-88
2022/12/08 08:05:00;;;;;;;8.90;6.13;;;;;;;4.26;91.95;100747.13;5017182;28;20524;-89
2022/12/08 08:07:35;;;;;;;10.32;6.57;;;;;;;4.35;91.90;100741.31;5017864;28;20044;-88
2022/12/08 08:10:04;;;;;;;8.68;6.78;;;;;;;4.46;91.58;100766.13;5017126;28;20037;-85
2022/12/08 08:12:29;;;;;;;10.73;7.07;;;;;;;4.65;91.04;100785.94;5034220;28;20100;-86
2022/12/08 08:14:55;;;;;;;9.23;7.10;;;;;;;4.58;91.60;100777.81;5016870;28;20084;-85
2022/12/08 08:17:23;;;;;;;10.23;7.85;;;;;;;4.42;91.87;100753.78;5034399;28;20041;-85
2022/12/08 08:19:51;;;;;;;11.52;8.18;;;;;;;4.49;92.02;100762.69;5000623;28;20044;-85
2022/12/08 08:22:16;;;;;;;9.85;7.40;;;;;;;4.50;91.59;100764.50;5033866;28;20037;-86
2022/12/08 08:24:49;;;;;;;11.23;7.43;;;;;;;4.58;90.86;100777.81;5034246;28;20490;-86
2022/12/08 08:27:17;;;;;;;12.13;8.10;;;;;;;4.67;91.02;100802.59;5000197;28;20131;-86
2022/12/08 08:29:42;;;;;;;11.32;7.57;;;;;;;4.40;90.94;100751.94;5033876;28;20080;-90
2022/12/08 08:32:10;;;;;;;9.23;6.28;;;;;;;4.41;90.59;100765.09;5016554;28;20371;-89
2022/12/08 08:34:36;;;;;;;7.95;5.30;;;;;;;4.60;91.20;100792.75;5016557;28;20451;-88
2022/12/08 08:37:02;;;;;;;8.38;4.40;;;;;;;4.50;90.75;100781.09;5016455;28;20503;-90
2022/12/08 08:39:29;;;;;;;6.65;4.18;;;;;;;4.59;90.38;100788.34;5034370;28;20053;-87
2022/12/08 08:41:54;;;;;;;4.65;3.20;;;;;;;4.40;89.98;100759.78;5033568;28;20025;-88
2022/12/08 08:44:23;;;;;;;6.13;2.90;;;;;;;4.42;89.81;100768.59;5016366;28;20028;-88
2022/12/08 08:46:48;;;;;;;3.45;2.40;;;;;;;4.40;89.66;100760.66;5033876;28;20525;-89
2022/12/08 08:49:14;;;;;;;3.63;2.30;;;;;;;4.42;90.06;100764.25;5016293;28;20030;-87
2022/12/08 08:51:39;;;;;;;5.30;2.53;;;;;;;4.32;89.06;100740.31;5000006;28;20045;-88
2022/12/08 08:54:05;;;;;;;4.07;2.50;;;;;;;4.37;89.16;100760.59;5015733;28;20477;-89
2022/12/08 08:56:36;;;;;;;5.38;2.35;;;;;;;4.45;89.04;100772.19;5015875;28;20029;-88
2022/12/08 08:59:07;;;;;;;4.88;2.30;;;;;;;4.56;89.68;100793.47;5016294;28;20037;-88
2022/12/08 09:01:32;;;;;;;3.70;2.00;;;;;;;4.29;88.99;100738.50;5033660;28;20032;-87
2022/12/08 09:03:58;;;;;;;6.05;2.10;;;;;;;4.53;88.73;100791.63;5015945;28;20033;-86
2022/12/08 09:06:24;;;;;;;2.60;2.00;;;;;;;4.25;88.58;100744.47;5015621;28;20037;-87
2022/12/08 09:08:50;;;;;;;3.90;2.10;;;;;;;4.33;89.18;100761.31;5016372;28;20040;-86
2022/12/08 09:11:19;;;;;;;5.75;2.40;;;;;;;4.42;89.23;100776.44;5033729;28;20037;-87
2022/12/08 09:13:48;;;;;;;3.55;2.20;;;;;;;4.34;90.24;100750.00;5015809;28;20017;-85
2022/12/08 09:16:14;;;;;;;4.60;2.25;;;;;;;4.48;89.47;100759.19;5016527;28;20107;-85
2022/12/08 09:18:39;;;;;;;3.75;2.25;;;;;;;4.64;89.47;100780.66;5033435;28;20417;-86
2022/12/08 09:21:13;;;;;;;4.68;2.33;;;;;;;4.71;89.41;100780.94;5033404;28;20033;-87
2022/12/08 09:23:52;;;;;;;4.53;2.28;;;;;;;4.73;89.14;100773.13;5016490;28;20040;-90
2022/12/08 09:26:21;;;;;;;5.90;2.50;;;;;;;4.70;89.09;100763.41;5015679;28;20029;-88
2022/12/08 09:28:56;;;;;;;3.92;2.65;;;;;;;4.75;89.64;100771.41;5015589;28;20033;-90
2022/12/08 09:31:23;;;;;;;4.53;2.80;;;;;;;4.72;89.26;100766.09;5015608;28;20045;-89
2022/12/08 09:33:52;;;;;;;4.22;2.70;;;;;;;4.73;90.12;100753.06;5015173;28;20549;-85
2022/12/08 09:36:18;;;;;;;4.25;2.80;;;;;;;4.93;89.33;100785.13;5033517;28;20026;-88
2022/12/08 09:38:47;;;;;;;6.53;2.78;;;;;;;4.77;89.58;100747.09;5015402;28;20478;-88
2022/12/08 09:41:38;;;;;;;5.13;3.10;;;;;;;5.03;89.13;100783.69;5015117;28;20040;-89
2022/12/08 09:44:37;;;;;;;6.97;3.60;;;;;;;5.08;89.41;100786.44;5015740;28;20025;-89
2022/12/08 09:47:19;;;;;;;7.25;3.50;;;;;;;4.96;89.04;100769.50;5015524;28;20029;-89
2022/12/08 09:49:55;;;;;;;5.40;3.45;;;;;;;5.05;88.50;100783.72;5015943;28;20033;-91
2022/12/08 09:52:30;;;;;;;6.35;3.55;;;;;;;4.79;88.95;100760.22;5017275;28;20026;-90
2022/12/08 09:55:10;;;;;;;5.95;3.60;;;;;;;4.73;89.36;100755.69;5036860;28;20118;-87
2022/12/08 09:57:58;;;;;;;8.02;3.40;;;;;;;4.74;89.52;100754.81;5019201;28;20033;-88
2022/12/08 10:00:26;;;;;;;5.63;3.65;;;;;;;4.68;89.89;100733.69;5019149;28;20040;-87
2022/12/08 10:02:58;;;;;;;7.32;3.50;;;;;;;4.70;90.09;100731.13;5020519;28;20034;-88
2022/12/08 10:05:26;;;;;;;7.68;3.53;;;;;;;4.68;89.12;100728.47;5019916;28;20034;-87
2022/12/08 10:08:05;;;;;;;8.02;3.95;;;;;;;4.66;89.56;100713.53;5019189;28;20066;-87
2022/12/08 10:10:54;;;;;;;6.97;3.95;;;;;;;4.95;89.80;100765.09;5019252;28;20061;-86
2022/12/08 10:13:31;;;;;;;7.82;4.90;;;;;;;4.96;89.31;100773.84;5036688;28;20045;-84
2022/12/08 10:16:26;;;;;;;10.55;6.18;;;;;;;4.95;89.94;100772.97;5019078;28;20084;-85
2022/12/08 10:19:17;;;;;;;15.30;6.72;;;;;;;4.86;90.17;100759.59;5036581;28;20172;-86
2022/12/08 10:21:46;;;;;;;11.50;6.85;;;;;;;4.98;90.70;100767.84;5018979;28;20471;-86
2022/12/08 10:24:24;;;;;;;14.70;9.73;;;;;;;5.00;90.00;100770.50;5036238;28;20120;-83
2022/12/08 10:26:50;;;;;;;20.92;13.15;;;;;;;4.89;89.86;100756.19;5018914;28;20037;-86
2022/12/08 10:29:16;;;;;;;20.55;14.80;;;;;;;4.79;89.84;100741.88;5002351;28;20044;-87
2022/12/08 10:31:41;;;;;;;23.10;14.38;;;;;;;4.83;90.51;100756.84;5018605;28;20025;-87
2022/12/08 10:34:19;;;;;;;25.95;15.50;;;;;;;4.88;91.13;100752.69;5019096;28;20034;-86
2022/12/08 10:36:55;;;;;;;26.88;16.65;;;;;;;4.76;90.90;100740.06;5036823;28;20037;-86
2022/12/08 10:39:34;;;;;;;28.23;17.77;;;;;;;4.88;91.06;100754.38;5018302;28;20094;-87
2022/12/08 10:42:05;;;;;;;28.33;17.73;;;;;;;4.81;91.02;100742.84;5036179;28;20153;-85
2022/12/08 10:44:51;;;;;;;29.13;18.58;;;;;;;4.80;90.75;100742.78;5018423;28;20095;-87
2022/12/08 10:47:20;;;;;;;27.25;17.27;;;;;;;4.81;91.29;100749.81;5035825;28;20041;-86
2022/12/08 10:50:04;;;;;;;24.85;16.73;;;;;;;4.87;90.81;100743.03;5018224;28;20041;-85
2022/12/08 10:52:36;;;;;;;30.80;16.77;;;;;;;4.89;91.21;100748.34;5037008;28;20061;-85
2022/12/08 10:55:01;;;;;;;29.15;18.05;;;;;;;4.83;90.68;100748.13;5003011;28;20032;-85
2022/12/08 10:57:27;;;;;;;29.55;17.58;;;;;;;4.76;90.51;100737.47;5002014;28;20041;-85
2022/12/08 10:59:56;;;;;;;23.58;14.38;;;;;;;4.83;90.78;100746.38;5018121;28;20128;-85
2022/12/08 11:02:22;;;;;;;23.60;13.88;;;;;;;4.73;90.49;100749.56;5018089;28;20107;-85
2022/12/08 11:04:57;;;;;;;21.92;13.27;;;;;;;4.66;90.84;100744.94;5000943;28;20033;-86
2022/12/08 11:07:23;;;;;;;23.48;13.27;;;;;;;4.67;90.59;100733.66;5018301;28;20445;-85
2022/12/08 11:09:57;;;;;;;21.10;13.15;;;;;;;4.68;91.70;100738.94;5018041;28;20065;-86
2022/12/08 11:12:26;;;;;;;25.20;13.40;;;;;;;4.55;91.04;100714.94;5035990;28;20041;-87
2022/12/08 11:15:01;;;;;;;19.75;10.75;;;;;;;4.56;90.36;100717.59;5017441;28;20037;-87
2022/12/08 11:17:38;;;;;;;16.67;9.98;;;;;;;4.34;89.93;100692.47;5035991;28;20568;-86
2022/12/08 11:20:21;;;;;;;12.60;8.23;;;;;;;4.51;90.51;100730.53;5018506;28;20084;-85
2022/12/08 11:22:54;;;;;;;15.23;8.95;;;;;;;4.39;90.35;100709.19;5018330;28;20029;-86
2022/12/08 11:25:23;;;;;;;14.05;9.23;;;;;;;4.51;91.38;100727.03;5001998;28;20042;-85
2022/12/08 11:27:57;;;;;;;13.68;8.90;;;;;;;4.46;91.17;100711.19;5017482;28;20032;-87
2022/12/08 11:30:42;;;;;;;14.45;9.70;;;;;;;4.60;91.23;100727.31;5035659;28;20465;-86
2022/12/08 11:33:16;;;;;;;11.32;8.55;;;;;;;4.56;90.91;100707.13;5035472;28;20029;-88
2022/12/08 11:35:46;;;;;;;12.90;7.75;;;;;;;4.36;90.79;100667.22;5017686;28;20063;-86
2022/12/08 11:38:14;;;;;;;13.25;8.68;;;;;;;4.58;90.61;100704.56;5017015;28;20129;-86
2022/12/08 11:40:43;;;;;;;15.02;8.95;;;;;;;4.29;90.41;100669.59;5016265;28;20079;-86
2022/12/08 11:43:25;;;;;;;13.07;8.00;;;;;;;4.38;90.33;100701.31;5036272;28;20041;-88
2022/12/08 11:46:09;;;;;;;11.05;7.95;;;;;;;4.29;90.73;100685.31;5035827;28;20026;-87
2022/12/08 11:48:45;;;;;;;11.07;8.02;;;;;;;4.34;91.42;100694.19;5036083;28;20116;-87
2022/12/08 11:51:15;;;;;;;11.48;7.70;;;;;;;4.19;90.66;100668.41;5035885;28;20481;-86
2022/12/08 11:54:10;;;;;;;11.05;7.53;;;;;;;4.48;90.46;100714.72;5035627;28;20067;-85